Time;durP1;ratioP1;P1;durP2;ratioP2;P2;SDS_P1;SDS_P2;PMS_P1;PMS_P2;Temp;Humidity;BMP_temperature;BMP_pressure;BME280_temperature;BME280_humidity;BME280_pressure;Samples;Min_cycle;Max_cycle;Signal;HPM_P1;HPM_P2
2023/12/04 00:00:35;;;;;;;30.95;15.43;;;0.90;99.90;;;;;;6211225;23;20016;-66
2023/12/04 00:03:01;;;;;;;29.25;14.95;;;1.00;99.90;;;;;;6211546;23;20017;-66
2023/12/04 00:05:27;;;;;;;32.20;15.82;;;0.90;99.90;;;;;;6211258;23;20377;-66
2023/12/04 00:07:52;;;;;;;35.17;16.92;;;1.00;99.90;;;;;;6211818;23;20020;-66
2023/12/04 00:10:18;;;;;;;36.03;15.85;;;0.90;99.90;;;;;;6184502;23;20457;-66
2023/12/04 00:12:44;;;;;;;34.08;16.20;;;1.00;99.90;;;;;;6183513;23;20064;-66
2023/12/04 00:15:10;;;;;;;33.03;14.57;;;0.90;99.90;;;;;;6184921;23;20078;-66
2023/12/04 00:17:39;;;;;;;33.03;16.02;;;0.90;99.90;;;;;;6184186;23;20091;-66
2023/12/04 00:20:06;;;;;;;31.60;15.73;;;0.90;99.90;;;;;;6211385;23;20102;-66
2023/12/04 00:22:32;;;;;;;31.08;15.82;;;0.90;99.90;;;;;;6184176;23;20020;-66
2023/12/04 00:24:58;;;;;;;34.13;15.68;;;0.90;99.90;;;;;;6210723;23;20091;-66
2023/12/04 00:27:26;;;;;;;28.83;14.10;;;0.90;99.90;;;;;;6211024;23;20146;-66
2023/12/04 00:29:53;;;;;;;27.23;13.75;;;1.00;99.90;;;;;;6210906;23;20364;-66
2023/12/04 00:32:18;;;;;;;32.92;15.05;;;0.80;99.90;;;;;;6210273;23;20020;-66
2023/12/04 00:34:44;;;;;;;30.67;14.82;;;0.90;99.90;;;;;;6210989;23;20023;-66
2023/12/04 00:37:10;;;;;;;28.85;13.75;;;0.90;99.90;;;;;;6210860;23;20075;-68
2023/12/04 00:39:35;;;;;;;31.63;15.07;;;0.90;99.90;;;;;;6210884;23;20464;-66
2023/12/04 00:42:01;;;;;;;28.10;13.77;;;0.90;99.90;;;;;;6210828;23;20024;-66
2023/12/04 00:44:27;;;;;;;32.72;14.45;;;0.90;99.90;;;;;;6210747;23;20385;-67
2023/12/04 00:46:52;;;;;;;24.25;12.68;;;0.90;99.90;;;;;;6211404;23;20020;-66
2023/12/04 00:49:19;;;;;;;34.60;14.13;;;0.90;99.90;;;;;;6210445;23;20033;-66
2023/12/04 00:51:44;;;;;;;29.15;13.93;;;1.00;99.90;;;;;;6210632;23;20053;-66
2023/12/04 00:54:11;;;;;;;27.48;13.60;;;1.00;99.90;;;;;;6210555;23;20198;-66
2023/12/04 00:56:40;;;;;;;29.20;13.73;;;1.00;99.90;;;;;;6211036;23;20036;-66
2023/12/04 00:59:08;;;;;;;27.55;13.93;;;1.00;99.90;;;;;;6211356;23;20091;-66
2023/12/04 01:01:35;;;;;;;29.70;15.13;;;0.90;99.90;;;;;;6212838;23;20039;-66
2023/12/04 01:04:01;;;;;;;30.00;13.52;;;1.00;99.90;;;;;;6185935;23;20024;-66
2023/12/04 01:06:27;;;;;;;27.08;13.80;;;1.00;99.90;;;;;;6212953;23;20504;-66
2023/12/04 01:08:54;;;;;;;27.30;13.32;;;1.00;99.90;;;;;;6185650;23;20465;-66
2023/12/04 01:11:20;;;;;;;26.88;13.57;;;0.90;99.90;;;;;;6212778;23;20021;-66
2023/12/04 01:13:46;;;;;;;27.77;14.70;;;0.90;99.90;;;;;;6212362;23;20027;-66
2023/12/04 01:16:12;;;;;;;29.45;13.20;;;1.00;99.90;;;;;;6213298;23;20020;-66
2023/12/04 01:18:37;;;;;;;30.00;14.88;;;1.00;99.90;;;;;;6186262;23;20345;-66
2023/12/04 01:21:03;;;;;;;26.08;12.80;;;1.00;99.90;;;;;;6212769;23;20024;-66
2023/12/04 01:23:29;;;;;;;26.38;14.52;;;1.00;99.90;;;;;;6186092;23;20028;-67
2023/12/04 01:25:55;;;;;;;29.05;14.43;;;1.00;99.90;;;;;;6213186;23;20032;-66
2023/12/04 01:28:20;;;;;;;26.88;13.38;;;1.00;99.90;;;;;;6212822;23;20082;-66
2023/12/04 01:30:46;;;;;;;26.95;12.65;;;1.00;99.90;;;;;;6212652;23;20024;-66
2023/12/04 01:33:12;;;;;;;31.58;13.65;;;1.00;99.90;;;;;;6212423;23;20020;-66
2023/12/04 01:35:37;;;;;;;29.75;14.77;;;0.90;99.90;;;;;;6185738;23;20921;-66
2023/12/04 01:38:03;;;;;;;25.17;13.30;;;1.00;99.90;;;;;;6212391;23;20021;-66
2023/12/04 01:40:29;;;;;;;24.15;13.13;;;1.00;99.90;;;;;;6212326;23;20042;-66
2023/12/04 01:42:54;;;;;;;29.08;14.05;;;1.00;99.90;;;;;;6212429;23;20020;-66
2023/12/04 01:45:20;;;;;;;25.10;12.63;;;1.00;99.90;;;;;;6213069;23;20021;-67
2023/12/04 01:47:46;;;;;;;26.95;14.02;;;1.00;99.90;;;;;;6185988;23;20095;-67
2023/12/04 01:50:14;;;;;;;27.27;12.32;;;0.90;99.90;;;;;;6186490;23;20027;-66
2023/12/04 01:52:40;;;;;;;28.80;14.18;;;1.00;99.90;;;;;;6185931;23;20439;-67
2023/12/04 01:55:08;;;;;;;26.30;12.68;;;1.00;99.90;;;;;;6212558;23;20437;-66
2023/12/04 01:57:34;;;;;;;22.58;12.98;;;1.00;99.90;;;;;;6212751;23;20022;-66
2023/12/04 02:00:00;;;;;;;27.77;13.73;;;1.10;99.90;;;;;;6212669;23;20024;-66
2023/12/04 02:02:28;;;;;;;31.05;13.68;;;1.10;99.90;;;;;;6212063;23;20016;-66
2023/12/04 02:04:59;;;;;;;25.65;14.02;;;1.10;99.90;;;;;;6212256;23;20024;-66
2023/12/04 02:07:25;;;;;;;25.58;13.18;;;1.10;99.90;;;;;;6212324;23;20321;-66
2023/12/04 02:09:51;;;;;;;26.10;13.23;;;1.10;99.90;;;;;;6185054;23;20028;-66
2023/12/04 02:12:17;;;;;;;27.40;13.63;;;1.10;99.90;;;;;;6211491;23;20086;-67
2023/12/04 02:14:43;;;;;;;28.30;12.77;;;1.10;99.90;;;;;;6212251;23;20096;-66
2023/12/04 02:17:09;;;;;;;27.98;14.18;;;1.10;99.90;;;;;;6212199;23;20052;-66
2023/12/04 02:19:36;;;;;;;26.60;13.00;;;1.10;99.90;;;;;;6212333;23;20444;-66
2023/12/04 02:22:01;;;;;;;26.35;13.52;;;1.10;99.90;;;;;;6185073;23;20504;-66
2023/12/04 02:24:28;;;;;;;25.00;13.93;;;1.20;99.90;;;;;;6184907;23;20016;-67
2023/12/04 02:27:01;;;;;;;27.83;13.80;;;1.20;99.90;;;;;;6211780;23;20032;-66
2023/12/04 02:29:36;;;;;;;29.27;14.25;;;1.20;99.90;;;;;;6211739;23;20025;-67
2023/12/04 02:32:05;;;;;;;27.58;13.98;;;1.10;99.90;;;;;;6211529;23;20079;-67
2023/12/04 02:34:33;;;;;;;26.00;13.02;;;1.20;99.90;;;;;;6212064;23;20446;-66
2023/12/04 02:37:01;;;;;;;26.70;13.13;;;1.20;99.90;;;;;;6160204;23;20087;-66
2023/12/04 02:39:27;;;;;;;25.98;13.15;;;1.10;99.90;;;;;;6211899;23;20100;-66
2023/12/04 02:41:52;;;;;;;25.95;13.40;;;1.30;99.90;;;;;;6184669;23;20029;-66
2023/12/04 02:44:18;;;;;;;27.23;13.93;;;1.30;99.90;;;;;;6212039;23;20021;-66
2023/12/04 02:46:44;;;;;;;26.58;13.73;;;1.20;99.90;;;;;;6211622;23;20021;-66
2023/12/04 02:49:10;;;;;;;26.15;12.90;;;1.20;99.90;;;;;;6211410;23;20411;-66
2023/12/04 02:51:35;;;;;;;29.23;13.18;;;1.30;99.90;;;;;;6211673;23;20096;-66
2023/12/04 02:54:01;;;;;;;25.15;12.30;;;1.20;99.90;;;;;;6184993;23;20036;-66
2023/12/04 02:56:27;;;;;;;26.50;13.07;;;1.20;99.90;;;;;;6211193;23;20418;-66
2023/12/04 02:58:52;;;;;;;22.33;11.88;;;1.30;99.90;;;;;;6211688;23;20028;-65
2023/12/04 03:01:18;;;;;;;26.85;13.45;;;1.20;99.90;;;;;;6211421;23;20024;-65
2023/12/04 03:03:44;;;;;;;25.48;12.77;;;1.30;99.90;;;;;;6211945;23;20079;-65
2023/12/04 03:06:09;;;;;;;24.88;12.68;;;1.20;99.90;;;;;;6211657;23;20051;-68
2023/12/04 03:08:35;;;;;;;26.83;12.73;;;1.20;99.90;;;;;;6211462;23;20337;-66
2023/12/04 03:11:03;;;;;;;23.40;12.27;;;1.20;99.90;;;;;;6211175;23;20032;-66
2023/12/04 03:13:29;;;;;;;27.27;13.43;;;1.20;99.90;;;;;;6211319;23;20582;-66
2023/12/04 03:15:54;;;;;;;25.75;12.98;;;1.20;99.90;;;;;;6211136;23;20021;-66
2023/12/04 03:18:20;;;;;;;26.40;11.48;;;1.20;99.90;;;;;;6211334;23;20096;-66
2023/12/04 03:20:46;;;;;;;26.42;12.80;;;1.20;99.90;;;;;;6211346;23;20024;-66
2023/12/04 03:23:11;;;;;;;24.75;12.88;;;1.20;99.90;;;;;;6184615;23;20028;-66
2023/12/04 03:25:37;;;;;;;22.73;11.63;;;1.20;99.90;;;;;;6211335;23;20017;-66
2023/12/04 03:28:03;;;;;;;23.17;12.13;;;1.20;99.90;;;;;;6211515;23;20024;-66
2023/12/04 03:30:28;;;;;;;25.23;11.88;;;1.20;99.90;;;;;;6184917;23;20028;-66
2023/12/04 03:32:54;;;;;;;26.15;12.45;;;1.20;99.90;;;;;;6184436;23;20032;-66
2023/12/04 03:35:20;;;;;;;23.00;11.57;;;1.20;99.90;;;;;;6184652;23;20016;-66
2023/12/04 03:37:45;;;;;;;26.55;12.63;;;1.20;99.90;;;;;;6211092;23;20053;-66
2023/12/04 03:40:11;;;;;;;23.27;11.98;;;1.20;99.90;;;;;;6210890;23;20016;-66
2023/12/04 03:42:37;;;;;;;22.10;11.13;;;1.20;99.90;;;;;;6184208;23;20021;-66
2023/12/04 03:45:03;;;;;;;24.25;11.60;;;1.30;99.90;;;;;;6211317;23;20031;-68
2023/12/04 03:47:29;;;;;;;24.90;11.52;;;1.20;99.90;;;;;;6184011;23;20017;-66
2023/12/04 03:49:55;;;;;;;24.17;11.68;;;1.20;99.90;;;;;;6210799;23;20107;-66
2023/12/04 03:52:20;;;;;;;21.08;10.82;;;1.20;99.90;;;;;;6211222;23;20033;-68
2023/12/04 03:54:46;;;;;;;26.38;11.35;;;1.10;99.90;;;;;;6184072;23;20020;-65
2023/12/04 03:57:12;;;;;;;25.48;11.80;;;1.30;99.90;;;;;;6184226;23;20658;-68
2023/12/04 03:59:37;;;;;;;20.67;10.32;;;1.10;99.90;;;;;;6211201;23;20016;-66
2023/12/04 04:02:03;;;;;;;24.85;12.32;;;1.10;99.90;;;;;;6211026;23;20024;-66
2023/12/04 04:04:29;;;;;;;26.25;12.63;;;1.20;99.90;;;;;;6184207;23;20027;-65
2023/12/04 04:06:55;;;;;;;31.48;13.75;;;1.20;99.90;;;;;;6210976;23;20124;-66
2023/12/04 04:09:20;;;;;;;23.30;11.98;;;1.20;99.90;;;;;;6210621;23;20376;-66
2023/12/04 04:11:46;;;;;;;24.30;11.90;;;1.20;99.90;;;;;;6210627;23;20017;-66
2023/12/04 04:14:12;;;;;;;29.33;12.82;;;1.20;99.90;;;;;;6211008;23;20021;-67
2023/12/04 04:16:37;;;;;;;22.45;11.23;;;1.20;99.90;;;;;;6211470;23;20066;-66
2023/12/04 04:19:03;;;;;;;25.48;11.63;;;1.20;99.90;;;;;;6211624;23;20029;-66
2023/12/04 04:21:29;;;;;;;21.88;11.50;;;1.20;99.90;;;;;;6211561;23;20465;-66
2023/12/04 04:23:55;;;;;;;25.95;11.70;;;1.20;99.90;;;;;;6210888;23;20374;-66
2023/12/04 04:26:20;;;;;;;24.90;12.55;;;1.20;99.90;;;;;;6184202;23;20330;-67
2023/12/04 04:28:46;;;;;;;26.98;12.32;;;1.30;99.90;;;;;;6183938;23;20020;-67
2023/12/04 04:31:12;;;;;;;23.15;11.90;;;1.30;99.90;;;;;;6210971;23;20337;-67
2023/12/04 04:33:37;;;;;;;22.13;11.18;;;1.30;99.90;;;;;;6210644;23;20012;-67
2023/12/04 04:36:03;;;;;;;24.88;12.90;;;1.30;99.90;;;;;;6184063;23;20035;-67
2023/12/04 04:38:29;;;;;;;26.13;12.35;;;1.30;99.90;;;;;;6211036;23;20068;-67
2023/12/04 04:40:55;;;;;;;23.48;11.18;;;1.30;99.90;;;;;;6210999;23;20027;-67
2023/12/04 04:43:20;;;;;;;22.23;11.00;;;1.30;99.90;;;;;;6183945;23;20028;-67
2023/12/04 04:45:46;;;;;;;25.17;12.23;;;1.30;99.90;;;;;;6183906;23;20416;-67
2023/12/04 04:48:12;;;;;;;22.65;11.70;;;1.30;99.90;;;;;;6210400;23;20024;-67
2023/12/04 04:50:38;;;;;;;24.58;12.02;;;1.30;99.90;;;;;;6210821;23;20070;-67
2023/12/04 04:53:04;;;;;;;21.70;11.85;;;1.30;99.90;;;;;;6210251;23;20063;-67
2023/12/04 04:55:31;;;;;;;24.58;12.18;;;1.30;99.90;;;;;;6211053;23;20052;-67
2023/12/04 04:57:57;;;;;;;22.60;11.27;;;1.30;99.90;;;;;;6159140;23;20055;-67
2023/12/04 05:00:23;;;;;;;20.92;11.32;;;1.30;99.90;;;;;;6210990;23;20034;-67
2023/12/04 05:02:48;;;;;;;24.42;11.80;;;1.30;99.90;;;;;;6210551;23;20083;-67
2023/12/04 05:05:14;;;;;;;22.65;10.77;;;1.30;99.90;;;;;;6210846;23;20136;-67
2023/12/04 05:07:40;;;;;;;24.15;11.77;;;1.20;99.90;;;;;;6183905;23;20476;-67
2023/12/04 05:10:06;;;;;;;24.55;12.48;;;1.30;99.90;;;;;;6211323;23;20333;-67
2023/12/04 05:12:31;;;;;;;24.58;11.10;;;1.20;99.90;;;;;;6210840;23;20034;-67
2023/12/04 05:14:57;;;;;;;19.23;10.43;;;1.20;99.90;;;;;;6210829;23;20016;-67
2023/12/04 05:17:23;;;;;;;26.17;12.30;;;1.30;99.90;;;;;;6211150;23;20012;-67
2023/12/04 05:19:48;;;;;;;22.52;11.52;;;1.30;99.90;;;;;;6210933;23;20096;-67
2023/12/04 05:22:14;;;;;;;21.30;10.50;;;1.20;99.90;;;;;;6210636;23;20048;-67
2023/12/04 05:24:40;;;;;;;22.00;11.05;;;1.20;99.90;;;;;;6210766;23;20020;-67
2023/12/04 05:27:05;;;;;;;22.00;11.15;;;1.30;99.90;;;;;;6210743;23;20020;-67
2023/12/04 05:29:31;;;;;;;22.15;10.52;;;1.30;99.90;;;;;;6212265;23;20359;-67
2023/12/04 05:31:57;;;;;;;24.60;11.55;;;1.30;99.90;;;;;;6210578;23;20052;-67
2023/12/04 05:34:23;;;;;;;21.58;10.80;;;1.30;99.90;;;;;;6210696;23;20016;-67
2023/12/04 05:36:49;;;;;;;25.40;12.15;;;1.30;99.90;;;;;;6183372;23;20756;-67
2023/12/04 05:39:15;;;;;;;20.23;11.35;;;1.40;99.90;;;;;;6210780;23;20025;-67
2023/12/04 05:41:40;;;;;;;23.23;10.30;;;1.30;99.90;;;;;;6210208;23;20028;-67
2023/12/04 05:44:06;;;;;;;20.15;11.10;;;1.30;99.90;;;;;;6210307;23;20052;-67
2023/12/04 05:46:32;;;;;;;19.33;10.55;;;1.40;99.90;;;;;;6212524;23;20021;-67
2023/12/04 05:48:58;;;;;;;19.52;10.77;;;1.30;99.90;;;;;;6212063;23;20020;-67
2023/12/04 05:51:24;;;;;;;22.27;11.50;;;1.40;99.90;;;;;;6212066;23;20147;-67
2023/12/04 05:53:49;;;;;;;20.08;10.68;;;1.30;99.90;;;;;;6212463;23;20028;-67
2023/12/04 05:56:15;;;;;;;20.95;11.40;;;1.40;99.90;;;;;;6211156;23;20473;-67
2023/12/04 05:58:41;;;;;;;20.95;10.77;;;1.40;99.90;;;;;;6212579;23;20047;-68
2023/12/04 06:01:07;;;;;;;22.38;11.07;;;1.40;99.90;;;;;;6212305;23;20072;-67
2023/12/04 06:03:33;;;;;;;20.85;11.20;;;1.30;99.90;;;;;;6185531;23;20028;-67
2023/12/04 06:05:58;;;;;;;21.85;10.35;;;1.30;99.90;;;;;;6212219;23;20015;-67
2023/12/04 06:08:24;;;;;;;19.52;10.65;;;1.30;99.90;;;;;;6185509;23;20454;-67
2023/12/04 06:10:50;;;;;;;20.80;10.40;;;1.40;99.90;;;;;;6212212;23;20233;-67
2023/12/04 06:13:16;;;;;;;21.65;11.27;;;1.40;99.90;;;;;;6185584;23;20091;-67
2023/12/04 06:15:42;;;;;;;20.63;10.05;;;1.40;99.90;;;;;;6212386;23;20016;-67
2023/12/04 06:18:08;;;;;;;20.67;10.75;;;1.40;99.90;;;;;;6185584;23;20032;-67
2023/12/04 06:20:34;;;;;;;19.83;10.68;;;1.40;99.90;;;;;;6212496;23;20017;-67
2023/12/04 06:22:59;;;;;;;23.67;11.52;;;1.40;99.90;;;;;;6212648;23;20024;-67
2023/12/04 06:25:26;;;;;;;22.95;10.20;;;1.40;99.90;;;;;;6212279;23;20016;-67
2023/12/04 06:27:52;;;;;;;22.05;10.18;;;1.50;99.90;;;;;;6212251;23;20021;-67
2023/12/04 06:30:18;;;;;;;18.58;9.95;;;1.40;99.90;;;;;;6211746;23;20055;-67
2023/12/04 06:32:44;;;;;;;24.88;11.18;;;1.40;99.90;;;;;;6211487;23;20068;-68
2023/12/04 06:35:10;;;;;;;20.52;9.40;;;1.30;99.90;;;;;;6212036;23;20132;-65
2023/12/04 06:37:39;;;;;;;20.60;10.85;;;1.30;99.90;;;;;;6211520;23;20445;-66
2023/12/04 06:40:08;;;;;;;19.30;10.65;;;1.20;99.90;;;;;;6212348;23;20345;-65
2023/12/04 06:42:35;;;;;;;20.17;10.23;;;1.30;99.90;;;;;;6212270;23;20354;-66
2023/12/04 06:45:01;;;;;;;20.33;10.75;;;1.30;99.90;;;;;;6212357;23;20032;-66
2023/12/04 06:47:30;;;;;;;16.98;9.70;;;1.30;99.90;;;;;;6212037;23;20106;-67
2023/12/04 06:49:56;;;;;;;22.10;10.82;;;1.30;99.90;;;;;;6185424;23;20021;-67
2023/12/04 06:52:22;;;;;;;18.15;10.18;;;1.30;99.90;;;;;;6211989;23;20009;-67
2023/12/04 06:54:48;;;;;;;17.95;9.07;;;1.30;99.90;;;;;;6211805;23;20018;-67
2023/12/04 06:57:14;;;;;;;17.98;9.93;;;1.30;99.90;;;;;;6212028;23;20060;-67
2023/12/04 06:59:42;;;;;;;19.90;11.15;;;1.30;99.90;;;;;;6160821;23;20040;-67
2023/12/04 07:02:07;;;;;;;21.50;10.10;;;1.30;99.90;;;;;;6211536;23;20017;-67
2023/12/04 07:04:33;;;;;;;19.73;10.02;;;1.30;99.90;;;;;;6210968;23;20023;-67
2023/12/04 07:07:04;;;;;;;25.60;13.82;;;1.20;99.90;;;;;;6211423;23;20092;-67
2023/12/04 07:09:31;;;;;;;23.60;12.02;;;1.20;99.90;;;;;;6210992;23;20027;-67
2023/12/04 07:11:57;;;;;;;19.05;10.80;;;1.30;99.90;;;;;;6184373;23;20354;-67
2023/12/04 07:14:23;;;;;;;21.20;9.90;;;1.30;99.90;;;;;;6184605;23;20043;-67
2023/12/04 07:16:49;;;;;;;17.98;9.75;;;1.20;99.90;;;;;;6211267;23;20020;-67
2023/12/04 07:19:16;;;;;;;18.70;9.95;;;1.20;99.90;;;;;;6211385;23;20024;-67
2023/12/04 07:21:42;;;;;;;22.80;10.45;;;1.20;99.90;;;;;;6211429;23;20471;-67
2023/12/04 07:24:08;;;;;;;18.88;10.57;;;1.20;99.90;;;;;;6211604;23;20024;-67
2023/12/04 07:26:35;;;;;;;22.45;9.77;;;1.30;99.90;;;;;;6211673;23;20021;-67
2023/12/04 07:29:01;;;;;;;19.10;9.98;;;1.30;99.90;;;;;;6211746;23;20023;-67
2023/12/04 07:31:27;;;;;;;20.75;10.02;;;1.30;99.90;;;;;;6210905;23;20025;-66
2023/12/04 07:33:56;;;;;;;20.20;10.07;;;1.40;99.90;;;;;;6211124;23;20463;-67
2023/12/04 07:36:22;;;;;;;18.42;10.00;;;1.30;99.90;;;;;;6210955;23;20013;-66
2023/12/04 07:38:49;;;;;;;16.05;8.52;;;1.30;99.90;;;;;;6211497;23;20069;-67
2023/12/04 07:41:15;;;;;;;23.02;10.45;;;1.30;99.90;;;;;;6211057;23;20031;-66
2023/12/04 07:43:40;;;;;;;19.58;10.30;;;1.30;99.90;;;;;;6211459;23;20025;-67
2023/12/04 07:46:08;;;;;;;21.85;10.02;;;1.30;99.90;;;;;;6210674;23;20013;-66
2023/12/04 07:48:34;;;;;;;20.88;10.50;;;1.30;99.90;;;;;;6211086;23;20020;-67
2023/12/04 07:51:00;;;;;;;25.40;9.70;;;1.30;99.90;;;;;;6211057;23;20349;-66
2023/12/04 07:53:25;;;;;;;17.75;9.07;;;1.40;99.90;;;;;;6184584;23;20020;-67
2023/12/04 07:55:51;;;;;;;18.17;10.20;;;1.40;99.90;;;;;;6211296;23;20009;-67
2023/12/04 07:58:17;;;;;;;18.23;9.13;;;1.40;99.90;;;;;;6184307;23;20043;-67
2023/12/04 08:00:47;;;;;;;18.02;10.30;;;1.30;99.90;;;;;;6183971;23;20029;-67
2023/12/04 08:03:13;;;;;;;17.45;9.32;;;1.30;99.90;;;;;;6184279;23;20016;-67
2023/12/04 08:05:38;;;;;;;15.38;8.70;;;1.30;99.90;;;;;;6210970;23;20043;-67
2023/12/04 08:08:05;;;;;;;20.58;9.57;;;1.30;99.90;;;;;;6210921;23;20025;-67
2023/12/04 08:10:31;;;;;;;18.88;9.55;;;1.30;99.90;;;;;;6184232;23;20481;-67
2023/12/04 08:12:57;;;;;;;16.75;9.40;;;1.30;99.90;;;;;;6184106;23;20393;-67
2023/12/04 08:15:22;;;;;;;22.10;10.02;;;1.30;99.90;;;;;;6210934;23;20016;-67
2023/12/04 08:17:48;;;;;;;18.92;10.20;;;1.80;99.90;;;;;;6210942;23;20021;-68
2023/12/04 08:20:14;;;;;;;20.08;9.45;;;1.50;99.90;;;;;;6184260;23;20381;-68
2023/12/04 08:22:41;;;;;;;18.00;9.57;;;1.60;99.90;;;;;;6211265;23;20520;-68
2023/12/04 08:25:07;;;;;;;18.08;9.38;;;1.50;99.90;;;;;;6210774;23;20024;-68
2023/12/04 08:27:33;;;;;;;17.80;8.98;;;1.50;99.90;;;;;;6184329;23;20016;-68
2023/12/04 08:29:59;;;;;;;21.52;9.32;;;1.50;99.90;;;;;;6210430;23;20022;-68
2023/12/04 08:32:26;;;;;;;15.35;8.55;;;1.50;99.90;;;;;;6210536;23;20020;-68
2023/12/04 08:34:52;;;;;;;17.98;9.13;;;1.60;99.90;;;;;;6210565;23;20467;-68
2023/12/04 08:37:20;;;;;;;17.27;8.75;;;1.50;99.90;;;;;;6210873;23;20013;-68
2023/12/04 08:39:46;;;;;;;16.80;8.93;;;1.50;99.90;;;;;;6210603;23;20020;-68
2023/12/04 08:42:12;;;;;;;14.95;8.32;;;1.50;99.90;;;;;;6210746;23;20029;-67
2023/12/04 08:44:38;;;;;;;18.60;9.23;;;1.40;99.90;;;;;;6210304;23;20456;-67
2023/12/04 08:47:04;;;;;;;18.15;8.88;;;1.50;99.90;;;;;;6210705;23;20024;-68
2023/12/04 08:49:30;;;;;;;15.43;8.68;;;1.50;99.90;;;;;;6210416;23;20067;-67
2023/12/04 08:51:56;;;;;;;14.70;8.88;;;1.50;99.90;;;;;;6183788;23;20056;-68
2023/12/04 08:54:23;;;;;;;13.73;8.52;;;1.50;99.90;;;;;;6210023;23;20030;-67
2023/12/04 08:56:48;;;;;;;15.18;8.60;;;1.50;99.90;;;;;;6210582;23;20331;-68
2023/12/04 08:59:14;;;;;;;17.45;9.05;;;1.60;99.90;;;;;;6183616;23;20051;-68
2023/12/04 09:01:40;;;;;;;15.23;7.85;;;1.60;99.90;;;;;;6210884;23;20688;-68
2023/12/04 09:04:08;;;;;;;18.80;7.85;;;1.50;99.90;;;;;;6183972;23;20040;-68
2023/12/04 09:06:33;;;;;;;14.43;7.70;;;1.50;99.90;;;;;;6210583;23;20063;-68
2023/12/04 09:08:59;;;;;;;15.60;8.55;;;1.60;99.90;;;;;;6210408;23;20016;-68
2023/12/04 09:11:25;;;;;;;12.95;7.47;;;1.50;99.90;;;;;;6211095;23;20060;-67
2023/12/04 09:13:50;;;;;;;14.60;7.60;;;1.50;99.90;;;;;;6182857;23;20025;-68
2023/12/04 09:16:17;;;;;;;17.35;7.95;;;1.60;99.90;;;;;;6184129;23;20090;-68
2023/12/04 09:18:43;;;;;;;16.30;8.52;;;1.60;99.90;;;;;;6210311;23;20024;-68
2023/12/04 09:21:09;;;;;;;16.38;8.23;;;1.60;99.90;;;;;;6212354;23;20025;-67
2023/12/04 09:23:35;;;;;;;15.80;7.68;;;1.60;99.90;;;;;;6212591;23;20028;-68
2023/12/04 09:26:01;;;;;;;17.40;8.10;;;1.60;99.90;;;;;;6212444;23;20024;-68
2023/12/04 09:28:27;;;;;;;15.10;7.63;;;1.70;99.90;;;;;;6212002;23;20017;-68
2023/12/04 09:30:53;;;;;;;14.77;8.15;;;1.70;99.90;;;;;;6212440;23;20012;-68
2023/12/04 09:33:18;;;;;;;13.38;7.60;;;1.70;99.90;;;;;;6212400;23;20024;-68
2023/12/04 09:35:44;;;;;;;15.65;7.68;;;1.70;99.90;;;;;;6185553;23;20544;-68
2023/12/04 09:38:10;;;;;;;14.45;6.57;;;1.80;99.90;;;;;;6212720;23;20115;-68
2023/12/04 09:40:36;;;;;;;11.45;7.05;;;1.80;99.90;;;;;;6185947;23;20020;-67
2023/12/04 09:43:02;;;;;;;12.85;6.75;;;1.80;99.90;;;;;;6212133;23;20016;-68
2023/12/04 09:45:31;;;;;;;17.58;8.98;;;1.80;99.90;;;;;;6212537;23;20013;-68
2023/12/04 09:47:58;;;;;;;15.32;7.97;;;1.80;99.90;;;;;;6185207;23;20070;-66
2023/12/04 09:50:24;;;;;;;15.57;7.45;;;1.80;99.90;;;;;;6212146;23;20017;-68
2023/12/04 09:52:50;;;;;;;14.55;7.28;;;1.80;99.90;;;;;;6212657;23;20154;-68
2023/12/04 09:55:16;;;;;;;15.27;7.43;;;2.00;99.90;;;;;;6212063;23;20024;-66
2023/12/04 09:57:45;;;;;;;16.88;7.40;;;2.00;99.90;;;;;;6211891;23;20048;-68
2023/12/04 10:00:13;;;;;;;17.17;7.40;;;2.00;99.90;;;;;;6185456;23;20538;-68
2023/12/04 10:02:40;;;;;;;13.70;6.90;;;2.00;99.90;;;;;;6212218;23;20016;-68
2023/12/04 10:05:06;;;;;;;13.50;7.53;;;2.00;99.90;;;;;;6212071;23;20083;-68
2023/12/04 10:07:32;;;;;;;14.65;8.43;;;2.00;99.90;;;;;;6212455;23;20052;-67
2023/12/04 10:09:58;;;;;;;13.23;6.72;;;2.20;99.90;;;;;;6212235;23;20020;-67
2023/12/04 10:12:25;;;;;;;12.77;6.53;;;2.20;99.90;;;;;;6212166;23;20453;-67
2023/12/04 10:15:12;;;;;;;11.40;6.55;;;2.20;99.90;;;;;;6185140;23;20021;-67
2023/12/04 10:17:40;;;;;;;11.20;6.20;;;2.10;99.90;;;;;;6212057;23;20017;-67
2023/12/04 10:20:11;;;;;;;12.48;7.68;;;2.30;99.90;;;;;;6212078;23;20134;-68
2023/12/04 10:22:57;;;;;;;16.17;7.40;;;2.20;99.90;;;;;;6212156;23;20306;-67
2023/12/04 10:25:25;;;;;;;10.95;6.72;;;2.20;99.90;;;;;;6211389;23;20017;-67
2023/12/04 10:27:53;;;;;;;11.95;6.65;;;2.20;99.90;;;;;;6212093;23;20025;-67
2023/12/04 10:30:28;;;;;;;13.77;6.25;;;2.30;99.90;;;;;;6212069;23;20017;-68
2023/12/04 10:33:05;;;;;;;11.18;6.30;;;2.20;99.90;;;;;;6212024;23;20024;-68
2023/12/04 10:35:38;;;;;;;12.48;6.57;;;2.20;99.90;;;;;;6212385;23;20025;-68
2023/12/04 10:38:05;;;;;;;11.70;6.25;;;2.20;99.90;;;;;;6212205;23;20029;-68
2023/12/04 10:40:36;;;;;;;12.20;6.95;;;2.30;99.90;;;;;;6211817;23;20336;-68
2023/12/04 10:43:15;;;;;;;12.98;6.47;;;2.30;99.90;;;;;;6185233;23;20087;-68
2023/12/04 10:45:42;;;;;;;11.57;6.70;;;2.40;99.90;;;;;;6212190;23;20091;-68
2023/12/04 10:48:09;;;;;;;13.05;6.55;;;2.40;99.90;;;;;;6211451;23;20350;-69
2023/12/04 10:50:37;;;;;;;12.23;7.70;;;2.40;99.90;;;;;;6211831;23;20016;-68
2023/12/04 10:53:04;;;;;;;15.40;6.93;;;2.40;99.90;;;;;;6211466;23;20017;-69
2023/12/04 10:55:31;;;;;;;11.98;6.38;;;2.30;99.90;;;;;;6211534;23;20039;-69
2023/12/04 10:57:59;;;;;;;13.10;6.75;;;2.40;99.90;;;;;;6184914;23;20017;-68
2023/12/04 11:00:26;;;;;;;11.57;6.95;;;2.40;99.90;;;;;;6211446;23;20063;-68
2023/12/04 11:02:56;;;;;;;11.70;6.50;;;2.40;99.90;;;;;;6211673;23;20017;-69
2023/12/04 11:05:24;;;;;;;10.73;6.75;;;2.40;99.90;;;;;;6211557;23;20088;-68
2023/12/04 11:07:57;;;;;;;9.35;5.88;;;2.40;99.90;;;;;;6212108;23;20021;-69
2023/12/04 11:10:26;;;;;;;13.27;7.03;;;2.40;99.90;;;;;;6212300;23;20017;-68
2023/12/04 11:13:17;;;;;;;12.07;5.85;;;2.40;99.90;;;;;;6212224;23;20021;-68
2023/12/04 11:15:45;;;;;;;10.38;5.97;;;2.40;99.90;;;;;;6185034;23;20055;-68
2023/12/04 11:18:14;;;;;;;10.85;6.57;;;2.40;99.90;;;;;;6211723;23;20013;-69
2023/12/04 11:20:59;;;;;;;9.95;5.93;;;2.50;99.90;;;;;;6211607;23;20025;-68
2023/12/04 11:23:26;;;;;;;7.95;5.20;;;2.40;99.90;;;;;;6210818;23;20016;-68
2023/12/04 11:25:53;;;;;;;10.25;6.05;;;2.40;99.90;;;;;;6211061;23;20051;-69
2023/12/04 11:28:19;;;;;;;11.13;6.53;;;2.40;99.90;;;;;;6211780;23;20106;-69
2023/12/04 11:30:46;;;;;;;8.60;6.10;;;2.40;99.90;;;;;;6185712;23;20024;-68
2023/12/04 11:33:11;;;;;;;11.63;5.95;;;2.40;99.90;;;;;;6211718;23;20628;-68
2023/12/04 11:35:39;;;;;;;12.15;7.45;;;2.50;99.90;;;;;;6211873;23;20019;-68
2023/12/04 11:38:09;;;;;;;13.88;6.75;;;2.40;99.90;;;;;;6211376;23;20040;-69
2023/12/04 11:40:36;;;;;;;13.20;6.45;;;2.50;99.90;;;;;;6184639;23;20541;-68
2023/12/04 11:43:21;;;;;;;12.35;6.60;;;2.40;99.90;;;;;;6211041;23;20458;-68
2023/12/04 11:45:48;;;;;;;9.90;5.78;;;2.40;99.90;;;;;;6211295;23;20454;-68
2023/12/04 11:48:14;;;;;;;10.90;7.05;;;2.50;99.90;;;;;;6211253;23;20385;-68
2023/12/04 11:50:40;;;;;;;10.50;7.05;;;2.50;99.90;;;;;;6211611;23;20025;-68
2023/12/04 11:53:06;;;;;;;13.43;7.53;;;2.50;99.90;;;;;;6211599;23;20402;-68
2023/12/04 11:55:40;;;;;;;10.57;6.45;;;2.50;99.90;;;;;;6184758;23;20079;-68
2023/12/04 11:58:09;;;;;;;9.80;6.05;;;2.50;99.90;;;;;;6211100;23;20716;-68
2023/12/04 12:00:35;;;;;;;11.85;6.38;;;2.50;99.90;;;;;;6184271;23;20027;-68
2023/12/04 12:03:06;;;;;;;10.98;6.05;;;2.60;99.90;;;;;;6210782;23;20464;-68
2023/12/04 12:05:33;;;;;;;10.48;5.97;;;2.60;99.90;;;;;;6210757;23;20024;-68
2023/12/04 12:08:03;;;;;;;13.10;6.25;;;2.60;99.90;;;;;;6183650;23;20036;-68
2023/12/04 12:10:29;;;;;;;10.95;6.47;;;2.50;99.90;;;;;;6211088;23;20016;-68
2023/12/04 12:12:56;;;;;;;11.40;6.03;;;2.60;99.90;;;;;;6210922;23;20035;-68
2023/12/04 12:15:22;;;;;;;10.00;5.82;;;2.60;99.90;;;;;;6211058;23;20027;-68
2023/12/04 12:17:50;;;;;;;10.95;6.18;;;2.50;99.90;;;;;;6211135;23;20024;-68
2023/12/04 12:20:16;;;;;;;10.48;6.20;;;2.50;99.90;;;;;;6210839;23;20453;-68
2023/12/04 12:22:43;;;;;;;11.88;6.15;;;2.60;99.90;;;;;;6210745;23;20027;-69
2023/12/04 12:25:10;;;;;;;10.20;6.38;;;2.50;99.90;;;;;;6210935;23;20071;-68
2023/12/04 12:27:36;;;;;;;10.02;6.05;;;2.50;99.90;;;;;;6184462;23;20031;-68
2023/12/04 12:30:04;;;;;;;10.52;7.03;;;2.60;99.90;;;;;;6210550;23;20458;-68
2023/12/04 12:32:31;;;;;;;10.75;6.35;;;2.50;99.90;;;;;;6210412;23;20636;-68
2023/12/04 12:34:57;;;;;;;11.13;6.60;;;2.50;99.90;;;;;;6180872;23;20051;-69
2023/12/04 12:37:22;;;;;;;10.98;6.50;;;2.60;99.90;;;;;;6210179;23;20106;-68